Time;durP1;ratioP1;P1;durP2;ratioP2;P2;SDS_P1;SDS_P2;PMS_P1;PMS_P2;Temp;Humidity;BMP_temperature;BMP_pressure;BME280_temperature;BME280_humidity;BME280_pressure;Samples;Min_cycle;Max_cycle;Signal;HPM_P1;HPM_P2
2023/08/19 00:01:18;;;;;;;32.88;29.30;;;20.10;99.90;;;;;;5092293;28;20408;-75
2023/08/19 00:03:44;;;;;;;37.60;30.70;;;20.00;99.90;;;;;;5072385;28;20044;-74
2023/08/19 00:06:30;;;;;;;34.85;30.50;;;20.20;99.90;;;;;;5056605;28;20052;-75
2023/08/19 00:08:55;;;;;;;33.60;29.30;;;20.20;99.90;;;;;;5055217;28;20048;-74
2023/08/19 00:11:21;;;;;;;35.00;30.80;;;20.10;99.90;;;;;;5071809;28;20086;-75
2023/08/19 00:13:47;;;;;;;32.55;28.65;;;20.10;99.90;;;;;;5071897;28;20094;-75
2023/08/19 00:16:12;;;;;;;33.42;29.80;;;20.10;99.90;;;;;;5055099;28;20049;-75
2023/08/19 00:18:38;;;;;;;33.47;29.85;;;20.10;99.90;;;;;;5071788;28;20037;-74
2023/08/19 00:21:04;;;;;;;35.38;29.35;;;20.10;99.90;;;;;;5072108;28;20072;-74
2023/08/19 00:23:29;;;;;;;33.97;30.30;;;20.20;99.90;;;;;;5055162;28;20458;-75
2023/08/19 00:25:55;;;;;;;33.95;28.40;;;20.20;99.90;;;;;;5055335;28;20075;-75
2023/08/19 00:28:21;;;;;;;34.35;28.35;;;20.10;99.90;;;;;;5071798;28;20045;-74
2023/08/19 00:30:47;;;;;;;31.77;28.35;;;20.20;99.90;;;;;;5056109;28;20424;-75
2023/08/19 00:33:12;;;;;;;33.10;29.15;;;20.20;99.90;;;;;;5071074;28;20057;-75
2023/08/19 00:35:39;;;;;;;32.35;28.83;;;20.20;99.90;;;;;;5071478;28;20055;-75
2023/08/19 00:38:04;;;;;;;34.13;29.27;;;20.20;99.90;;;;;;5054823;28;20124;-75
2023/08/19 00:40:30;;;;;;;29.65;26.42;;;20.20;99.90;;;;;;5071605;28;20119;-75
2023/08/19 00:42:56;;;;;;;31.88;28.40;;;20.20;99.90;;;;;;5071513;28;20481;-74
2023/08/19 00:45:22;;;;;;;30.38;27.08;;;20.10;99.90;;;;;;5071590;28;20381;-75
2023/08/19 00:47:48;;;;;;;32.53;28.48;;;20.10;99.90;;;;;;5071598;28;20080;-75
2023/08/19 00:50:15;;;;;;;30.95;27.65;;;20.30;99.90;;;;;;5055721;28;20510;-75
2023/08/19 00:52:41;;;;;;;34.05;27.98;;;20.20;99.90;;;;;;5054596;28;20493;-75
2023/08/19 00:55:08;;;;;;;31.73;27.45;;;20.20;99.90;;;;;;5054567;28;20447;-75
2023/08/19 00:57:36;;;;;;;31.38;28.02;;;20.30;99.90;;;;;;5054331;28;20383;-74
2023/08/19 01:00:03;;;;;;;33.50;27.90;;;20.20;99.90;;;;;;5054601;28;20045;-75
2023/08/19 01:02:29;;;;;;;33.95;28.67;;;20.20;99.90;;;;;;5054125;28;20056;-75
2023/08/19 01:04:55;;;;;;;29.73;26.42;;;20.20;99.90;;;;;;5070953;28;20048;-75
2023/08/19 01:07:37;;;;;;;31.48;28.20;;;20.20;99.90;;;;;;5053481;28;20048;-74
2023/08/19 01:10:33;;;;;;;32.33;28.05;;;20.30;99.90;;;;;;5055014;28;20057;-74
2023/08/19 01:13:12;;;;;;;29.73;26.17;;;20.20;99.90;;;;;;5054365;28;20056;-74
2023/08/19 01:15:50;;;;;;;30.55;27.15;;;20.20;99.90;;;;;;5054223;28;20049;-74
2023/08/19 01:18:17;;;;;;;32.67;27.17;;;20.10;99.90;;;;;;5054003;28;20045;-75
2023/08/19 01:20:43;;;;;;;32.70;29.13;;;20.10;99.90;;;;;;5070572;28;20045;-75
2023/08/19 01:23:17;;;;;;;31.95;28.45;;;20.20;99.90;;;;;;5055244;28;20048;-74
2023/08/19 01:25:42;;;;;;;31.70;27.95;;;20.30;99.90;;;;;;5054149;28;20098;-74
2023/08/19 01:28:08;;;;;;;31.35;27.33;;;20.20;99.90;;;;;;5054165;28;20049;-74
2023/08/19 01:30:34;;;;;;;31.85;27.70;;;20.10;99.90;;;;;;5053661;28;20473;-75
2023/08/19 01:33:02;;;;;;;31.55;28.05;;;20.10;99.90;;;;;;5054502;28;20049;-75
2023/08/19 01:35:39;;;;;;;29.05;25.95;;;20.30;99.90;;;;;;5053704;28;20052;-75
2023/08/19 01:38:05;;;;;;;33.95;26.90;;;20.20;99.90;;;;;;5054877;28;20049;-75
2023/08/19 01:40:32;;;;;;;35.28;28.67;;;20.10;99.90;;;;;;5053447;28;20051;-75
2023/08/19 01:42:59;;;;;;;31.50;27.55;;;20.10;99.90;;;;;;5053673;28;20049;-75
2023/08/19 01:45:28;;;;;;;29.08;26.08;;;20.20;99.90;;;;;;5053631;28;20499;-75
2023/08/19 01:47:54;;;;;;;30.00;26.80;;;20.00;99.90;;;;;;5053587;28;20498;-75
2023/08/19 01:50:20;;;;;;;30.50;27.13;;;20.20;99.90;;;;;;5070244;28;20120;-75
2023/08/19 01:52:46;;;;;;;34.78;28.58;;;20.10;99.90;;;;;;5069980;28;20045;-75
2023/08/19 01:55:11;;;;;;;34.78;28.40;;;20.30;99.90;;;;;;5053195;28;20084;-74
2023/08/19 01:57:37;;;;;;;31.33;27.95;;;20.20;99.90;;;;;;5069975;28;20047;-75
2023/08/19 02:00:04;;;;;;;30.90;27.60;;;20.20;99.90;;;;;;5054500;28;20041;-75
2023/08/19 02:02:29;;;;;;;31.63;27.25;;;20.20;99.90;;;;;;5065835;28;20044;-75
2023/08/19 02:04:55;;;;;;;30.85;27.25;;;20.20;99.90;;;;;;5073068;28;20075;-75
2023/08/19 02:07:21;;;;;;;29.98;26.73;;;20.10;99.90;;;;;;5073098;28;20036;-75
2023/08/19 02:09:46;;;;;;;33.30;28.23;;;20.10;99.90;;;;;;5072841;28;20040;-75
2023/08/19 02:12:12;;;;;;;31.35;26.75;;;20.10;99.90;;;;;;5072839;28;20228;-75
2023/08/19 02:14:38;;;;;;;33.85;27.77;;;20.10;99.90;;;;;;5072862;28;20413;-75
2023/08/19 02:17:07;;;;;;;30.58;27.35;;;20.00;99.90;;;;;;5073032;28;20046;-75
2023/08/19 02:19:32;;;;;;;31.10;27.88;;;20.00;99.90;;;;;;5072777;28;20613;-75
2023/08/19 02:21:58;;;;;;;31.38;28.05;;;20.10;99.90;;;;;;5073975;28;20040;-75
2023/08/19 02:24:25;;;;;;;31.27;27.90;;;20.10;99.90;;;;;;5072528;28;20047;-75
2023/08/19 02:26:50;;;;;;;31.95;27.83;;;20.00;99.90;;;;;;5072776;28;20483;-75
2023/08/19 02:29:16;;;;;;;36.15;28.08;;;20.00;99.90;;;;;;5072878;28;20498;-75
2023/08/19 02:31:43;;;;;;;30.92;27.33;;;20.10;99.90;;;;;;5072273;28;20104;-75
2023/08/19 02:34:08;;;;;;;33.42;28.80;;;20.00;99.90;;;;;;5072878;28;20044;-75
2023/08/19 02:36:34;;;;;;;33.13;27.77;;;20.00;99.90;;;;;;5072273;28;20511;-75
2023/08/19 02:39:00;;;;;;;32.35;27.80;;;19.90;99.90;;;;;;5073575;28;20040;-75
2023/08/19 02:41:25;;;;;;;32.30;26.92;;;20.00;99.90;;;;;;5072409;28;20153;-75
2023/08/19 02:43:51;;;;;;;30.02;26.67;;;19.90;99.90;;;;;;5074002;28;20047;-74
2023/08/19 02:46:17;;;;;;;32.15;27.92;;;20.00;99.90;;;;;;5073681;28;20036;-75
2023/08/19 02:48:42;;;;;;;33.63;28.20;;;20.10;99.90;;;;;;5072751;28;20545;-74
2023/08/19 02:51:08;;;;;;;32.40;28.13;;;19.90;99.90;;;;;;5072242;28;20408;-75
2023/08/19 02:53:34;;;;;;;30.75;27.45;;;19.90;99.90;;;;;;5072361;28;20040;-74
2023/08/19 02:55:59;;;;;;;33.10;28.55;;;19.90;99.90;;;;;;5072006;28;20040;-75
2023/08/19 02:58:27;;;;;;;34.50;28.48;;;20.00;99.90;;;;;;5072297;28;20036;-74
2023/08/19 03:00:52;;;;;;;33.97;30.27;;;20.00;99.90;;;;;;5072037;28;20040;-74
2023/08/19 03:03:18;;;;;;;32.75;28.52;;;20.00;99.90;;;;;;5072312;28;20051;-74
2023/08/19 03:05:44;;;;;;;32.75;27.30;;;19.90;99.90;;;;;;5072153;28;20055;-75
2023/08/19 03:08:10;;;;;;;32.03;27.30;;;20.00;99.90;;;;;;5072205;28;20063;-75
2023/08/19 03:10:40;;;;;;;30.35;25.85;;;19.90;99.90;;;;;;5073360;28;20068;-75
2023/08/19 03:13:07;;;;;;;32.58;28.75;;;19.90;99.90;;;;;;5072260;28;20119;-74
2023/08/19 03:15:35;;;;;;;32.05;28.63;;;20.00;99.90;;;;;;5071971;28;20196;-74
2023/08/19 03:18:01;;;;;;;34.10;28.52;;;19.90;99.90;;;;;;5072244;28;20087;-74
2023/08/19 03:20:27;;;;;;;32.55;27.85;;;20.00;99.90;;;;;;5072357;28;20052;-74
2023/08/19 03:22:52;;;;;;;33.25;27.02;;;19.80;99.90;;;;;;5071720;28;20094;-75
2023/08/19 03:25:18;;;;;;;32.42;28.55;;;20.00;99.90;;;;;;5072081;28;20040;-75
2023/08/19 03:27:44;;;;;;;35.92;29.05;;;19.90;99.90;;;;;;5071830;28;20036;-75
2023/08/19 03:30:10;;;;;;;33.45;29.38;;;19.90;99.90;;;;;;5072202;28;20048;-75
2023/08/19 03:32:35;;;;;;;33.58;29.55;;;19.90;99.90;;;;;;5074765;28;20512;-75
2023/08/19 03:35:03;;;;;;;33.03;29.23;;;19.90;99.90;;;;;;5076090;28;20045;-74
2023/08/19 03:37:28;;;;;;;32.70;28.48;;;20.00;99.90;;;;;;5075591;28;20084;-75
2023/08/19 03:39:54;;;;;;;32.53;27.83;;;19.90;99.90;;;;;;5075780;28;20098;-75
2023/08/19 03:42:23;;;;;;;34.70;28.20;;;19.90;99.90;;;;;;5075796;28;20056;-75
2023/08/19 03:44:48;;;;;;;32.90;28.48;;;19.90;99.90;;;;;;5075859;28;20365;-75
2023/08/19 03:47:14;;;;;;;33.65;29.60;;;20.00;99.90;;;;;;5075846;28;20076;-75
2023/08/19 03:49:40;;;;;;;32.15;27.63;;;19.90;99.90;;;;;;5075600;28;20044;-74
2023/08/19 03:52:07;;;;;;;34.10;29.13;;;20.00;99.90;;;;;;5075403;28;20472;-75
2023/08/19 03:54:33;;;;;;;37.47;29.83;;;20.00;99.90;;;;;;5075421;28;20059;-74
2023/08/19 03:56:59;;;;;;;33.13;28.58;;;19.90;99.90;;;;;;5076488;28;20045;-75
2023/08/19 03:59:24;;;;;;;33.03;29.45;;;20.00;99.90;;;;;;5075283;28;20106;-74
2023/08/19 04:01:50;;;;;;;34.63;29.23;;;19.80;99.90;;;;;;5075312;28;20040;-74
2023/08/19 04:04:16;;;;;;;36.55;29.52;;;19.90;99.90;;;;;;5076534;28;20041;-74
2023/08/19 04:06:42;;;;;;;34.75;29.05;;;20.00;99.90;;;;;;5075240;28;20369;-74
2023/08/19 04:09:08;;;;;;;32.45;28.67;;;20.00;99.90;;;;;;5074994;28;20502;-74
2023/08/19 04:11:34;;;;;;;30.52;27.25;;;20.00;99.90;;;;;;5075119;28;20084;-74
2023/08/19 04:14:08;;;;;;;33.22;28.02;;;20.00;99.90;;;;;;5076043;28;20476;-74
2023/08/19 04:16:46;;;;;;;;;;;;;;;;;;;;;
2023/08/19 04:19:12;;;;;;;34.90;28.30;;;20.00;99.90;;;;;;5073191;28;20049;-74
2023/08/19 04:21:37;;;;;;;33.65;28.52;;;20.00;99.90;;;;;;5075073;28;20090;-75
2023/08/19 04:24:03;;;;;;;31.58;27.65;;;19.90;99.90;;;;;;5074554;28;20114;-75
2023/08/19 04:26:29;;;;;;;33.17;29.25;;;20.10;99.90;;;;;;5075904;28;20087;-75
2023/08/19 04:28:54;;;;;;;32.90;27.67;;;20.00;99.90;;;;;;5074586;28;20036;-74
2023/08/19 04:31:21;;;;;;;32.10;27.70;;;20.10;99.90;;;;;;5074416;28;20071;-74
2023/08/19 04:33:47;;;;;;;32.08;27.45;;;20.00;99.90;;;;;;5074312;28;20131;-74
2023/08/19 04:36:13;;;;;;;31.48;27.38;;;20.00;99.90;;;;;;5074545;28;20055;-74
2023/08/19 04:38:39;;;;;;;32.60;27.85;;;20.00;99.90;;;;;;5075983;28;20131;-74
2023/08/19 04:41:04;;;;;;;35.63;28.38;;;20.00;99.90;;;;;;5074538;28;20048;-74
2023/08/19 04:43:30;;;;;;;32.17;27.52;;;20.10;99.90;;;;;;5073537;28;20076;-74
2023/08/19 04:45:56;;;;;;;36.30;28.55;;;20.10;99.90;;;;;;5074656;28;20442;-75
2023/08/19 04:48:21;;;;;;;31.45;27.02;;;20.20;99.90;;;;;;5074250;28;20549;-74
2023/08/19 04:50:50;;;;;;;32.15;26.27;;;20.10;99.90;;;;;;5074370;28;20125;-74
2023/08/19 04:53:16;;;;;;;30.77;27.45;;;20.00;99.90;;;;;;5074373;28;20123;-74
2023/08/19 04:55:42;;;;;;;31.63;26.30;;;20.10;99.90;;;;;;5075435;28;20119;-74
2023/08/19 04:58:07;;;;;;;33.42;26.92;;;20.20;99.90;;;;;;5074127;28;20041;-74
2023/08/19 05:00:33;;;;;;;31.50;27.23;;;20.10;99.90;;;;;;5074008;28;20059;-74
2023/08/19 05:02:59;;;;;;;32.38;26.17;;;20.10;99.90;;;;;;5074234;28;20044;-74
2023/08/19 05:05:24;;;;;;;31.08;26.33;;;20.20;99.90;;;;;;5075145;28;20400;-74
2023/08/19 05:07:50;;;;;;;30.77;25.55;;;20.20;99.90;;;;;;5074057;28;20123;-75
2023/08/19 05:10:16;;;;;;;30.85;26.65;;;20.20;99.90;;;;;;5073954;28;20052;-75
2023/08/19 05:12:41;;;;;;;30.65;25.35;;;20.20;99.90;;;;;;5073751;28;20052;-75
2023/08/19 05:15:09;;;;;;;27.77;24.85;;;20.10;99.90;;;;;;5073781;28;20052;-75
2023/08/19 05:17:35;;;;;;;29.92;25.77;;;20.30;99.90;;;;;;5068931;28;20182;-74
2023/08/19 05:20:01;;;;;;;27.33;24.40;;;20.30;99.90;;;;;;5074099;28;20154;-73
2023/08/19 05:22:26;;;;;;;26.40;23.65;;;20.20;99.90;;;;;;5073641;28;20127;-74
2023/08/19 05:24:52;;;;;;;29.75;25.23;;;20.20;99.90;;;;;;5074498;28;20048;-73
2023/08/19 05:27:17;;;;;;;30.95;24.45;;;20.20;99.90;;;;;;5073397;28;20043;-73
2023/08/19 05:29:43;;;;;;;27.20;22.52;;;20.20;99.90;;;;;;5073220;28;20088;-73
2023/08/19 05:32:09;;;;;;;26.55;23.00;;;20.30;99.90;;;;;;5073271;28;20508;-74
2023/08/19 05:34:36;;;;;;;31.08;23.85;;;20.40;99.90;;;;;;5073053;28;20052;-74
2023/08/19 05:37:04;;;;;;;29.08;24.52;;;20.40;99.90;;;;;;5072927;28;20136;-74
2023/08/19 05:39:30;;;;;;;27.13;23.40;;;20.30;99.90;;;;;;5074708;28;20048;-74
2023/08/19 05:41:56;;;;;;;27.80;23.10;;;20.30;99.90;;;;;;5074366;28;20105;-74
2023/08/19 05:44:21;;;;;;;27.30;22.55;;;20.50;99.90;;;;;;5073187;28;20131;-75
2023/08/19 05:46:47;;;;;;;26.70;22.52;;;20.50;99.90;;;;;;5074578;28;20048;-74
2023/08/19 05:49:13;;;;;;;27.90;23.77;;;20.50;99.90;;;;;;5073270;28;20032;-74
2023/08/19 05:51:38;;;;;;;26.48;22.08;;;20.40;99.90;;;;;;5074341;28;20042;-74
2023/08/19 05:54:10;;;;;;;27.27;22.85;;;20.40;99.90;;;;;;5072763;28;20041;-74
2023/08/19 05:56:35;;;;;;;26.25;22.88;;;20.40;99.90;;;;;;5072861;28;20041;-74
2023/08/19 05:59:04;;;;;;;25.52;22.58;;;20.50;99.90;;;;;;5074353;28;20086;-74
2023/08/19 06:01:30;;;;;;;24.73;21.27;;;20.50;99.90;;;;;;5074231;28;20074;-74
2023/08/19 06:03:55;;;;;;;25.05;21.90;;;20.60;99.90;;;;;;5074207;28;20048;-74
2023/08/19 06:06:21;;;;;;;25.30;21.77;;;20.60;99.90;;;;;;5074167;28;20048;-75
2023/08/19 06:08:46;;;;;;;26.00;21.85;;;20.60;99.90;;;;;;5073218;28;20052;-74
2023/08/19 06:11:12;;;;;;;28.20;22.08;;;20.60;99.90;;;;;;5072582;28;20419;-73
2023/08/19 06:13:38;;;;;;;24.70;20.00;;;20.60;99.90;;;;;;5074069;28;20097;-74
2023/08/19 06:16:04;;;;;;;22.27;19.48;;;20.70;99.90;;;;;;5072496;28;20143;-74
2023/08/19 06:18:31;;;;;;;22.73;20.23;;;20.70;99.90;;;;;;5072754;28;20052;-74
2023/08/19 06:20:57;;;;;;;22.20;19.98;;;20.60;99.90;;;;;;5072646;28;20405;-73
2023/08/19 06:23:23;;;;;;;25.95;20.88;;;20.60;99.90;;;;;;5072444;28;20048;-73
2023/08/19 06:25:50;;;;;;;23.88;20.92;;;20.60;99.90;;;;;;5072310;28;20051;-73
2023/08/19 06:28:18;;;;;;;23.15;19.08;;;20.70;99.90;;;;;;5072581;28;20055;-79
2023/08/19 06:30:44;;;;;;;24.83;20.92;;;20.70;99.90;;;;;;5072172;28;20044;-73
2023/08/19 06:33:11;;;;;;;21.42;19.15;;;20.70;99.90;;;;;;5072236;28;20060;-74
2023/08/19 06:35:38;;;;;;;25.83;19.02;;;20.70;99.90;;;;;;5072319;28;20041;-74
2023/08/19 06:38:15;;;;;;;21.58;19.38;;;20.80;99.90;;;;;;5072416;28;20117;-75
2023/08/19 06:41:05;;;;;;;21.60;18.92;;;20.70;99.90;;;;;;5073511;28;20071;-74
2023/08/19 06:43:40;;;;;;;22.92;19.65;;;20.80;99.90;;;;;;5069377;28;20119;-73
2023/08/19 06:46:07;;;;;;;21.17;18.63;;;20.80;99.90;;;;;;5063833;28;20484;-73
2023/08/19 06:48:34;;;;;;;25.45;19.45;;;20.80;99.90;;;;;;5079343;28;20047;-73
2023/08/19 06:51:01;;;;;;;22.02;18.65;;;20.90;99.90;;;;;;5071518;28;20145;-73
2023/08/19 06:53:27;;;;;;;19.90;17.80;;;20.90;99.90;;;;;;5055292;28;20048;-73
2023/08/19 06:56:23;;;;;;;24.15;18.55;;;20.90;99.90;;;;;;5053071;28;20448;-73
2023/08/19 06:58:58;;;;;;;20.23;17.85;;;21.00;99.90;;;;;;5052009;28;20057;-74
2023/08/19 07:01:31;;;;;;;22.33;18.80;;;21.00;99.90;;;;;;5053264;28;20049;-73
2023/08/19 07:03:57;;;;;;;23.42;18.90;;;21.10;99.90;;;;;;5051677;28;20045;-73
2023/08/19 07:06:26;;;;;;;20.85;18.52;;;21.10;99.90;;;;;;5050852;28;20041;-74
2023/08/19 07:08:52;;;;;;;22.45;17.05;;;21.10;99.90;;;;;;5051887;28;20061;-74
2023/08/19 07:11:18;;;;;;;18.83;16.80;;;21.10;99.90;;;;;;5051419;28;20053;-73
2023/08/19 07:13:44;;;;;;;21.90;16.10;;;21.20;99.90;;;;;;5053011;28;20047;-74
2023/08/19 07:16:12;;;;;;;20.23;17.38;;;21.20;99.90;;;;;;5052728;28;20076;-76
2023/08/19 07:18:40;;;;;;;20.73;17.05;;;21.20;99.90;;;;;;5054407;28;20102;-74
2023/08/19 07:21:10;;;;;;;20.30;16.60;;;21.20;99.90;;;;;;5056693;28;20041;-74
2023/08/19 07:23:39;;;;;;;20.23;16.25;;;21.30;99.90;;;;;;5080499;28;20046;-74
2023/08/19 07:26:05;;;;;;;22.42;17.00;;;21.30;99.90;;;;;;5064561;28;20492;-74
2023/08/19 07:28:32;;;;;;;19.60;16.73;;;21.30;99.90;;;;;;5075564;28;20067;-74
2023/08/19 07:30:58;;;;;;;18.75;16.63;;;21.40;99.90;;;;;;5062749;28;20045;-74
2023/08/19 07:33:24;;;;;;;20.05;15.60;;;21.40;99.90;;;;;;5062497;28;20416;-74
2023/08/19 07:35:50;;;;;;;18.90;16.40;;;21.40;99.90;;;;;;5077054;28;20492;-74
2023/08/19 07:38:15;;;;;;;18.80;15.43;;;21.40;99.90;;;;;;5061737;28;20055;-74
2023/08/19 07:40:41;;;;;;;18.77;15.20;;;21.50;99.90;;;;;;5073156;28;20040;-73
2023/08/19 07:43:07;;;;;;;18.10;15.80;;;21.40;99.90;;;;;;5079608;28;20401;-73
2023/08/19 07:45:33;;;;;;;18.63;15.98;;;21.50;99.90;;;;;;5077186;28;20107;-73
2023/08/19 07:47:58;;;;;;;20.45;15.82;;;21.60;99.90;;;;;;5053856;28;20470;-73
2023/08/19 07:50:24;;;;;;;18.33;14.25;;;21.60;99.90;;;;;;5060119;28;20500;-73
2023/08/19 07:52:50;;;;;;;16.55;14.85;;;21.50;99.90;;;;;;5051313;28;20083;-73
2023/08/19 07:55:15;;;;;;;19.65;15.55;;;21.50;99.90;;;;;;5059659;28;20041;-73
2023/08/19 07:57:41;;;;;;;21.13;15.20;;;21.60;99.90;;;;;;5071085;28;20041;-73
2023/08/19 08:00:09;;;;;;;17.67;14.05;;;21.60;99.90;;;;;;5078954;28;20045;-73
2023/08/19 08:02:34;;;;;;;17.58;14.48;;;21.60;99.90;;;;;;5054583;28;20053;-74
2023/08/19 08:05:02;;;;;;;21.77;13.60;;;21.60;99.90;;;;;;5078826;28;20450;-74
2023/08/19 08:07:28;;;;;;;17.52;14.18;;;21.70;99.90;;;;;;5062408;28;20067;-74
2023/08/19 08:09:53;;;;;;;18.15;14.98;;;21.80;99.90;;;;;;5061150;28;20077;-74
2023/08/19 08:12:19;;;;;;;17.80;15.93;;;21.70;99.90;;;;;;5079294;28;20049;-74
2023/08/19 08:14:44;;;;;;;19.60;16.42;;;21.80;99.90;;;;;;5079434;28;20134;-74
2023/08/19 08:17:10;;;;;;;18.25;14.18;;;21.80;99.90;;;;;;5073802;28;20397;-74
2023/08/19 08:19:36;;;;;;;18.17;15.35;;;21.90;99.90;;;;;;5078089;28;20403;-73
2023/08/19 08:22:01;;;;;;;17.58;13.25;;;21.90;99.90;;;;;;5055418;28;20851;-73
2023/08/19 08:24:27;;;;;;;16.80;13.60;;;21.90;99.90;;;;;;5081916;28;20060;-74
2023/08/19 08:26:53;;;;;;;20.02;14.05;;;21.90;99.90;;;;;;5073843;28;20036;-74
2023/08/19 08:29:18;;;;;;;17.65;13.63;;;22.00;99.90;;;;;;5063197;28;20055;-74
2023/08/19 08:31:44;;;;;;;17.23;13.57;;;22.00;99.90;;;;;;5061517;28;20080;-74
2023/08/19 08:34:11;;;;;;;16.75;13.48;;;22.10;99.90;;;;;;5067743;28;20053;-73
2023/08/19 08:36:36;;;;;;;16.60;12.45;;;22.20;99.90;;;;;;5078342;28;20076;-73
2023/08/19 08:39:05;;;;;;;16.85;13.40;;;22.30;99.90;;;;;;5055874;28;20048;-73
2023/08/19 08:41:32;;;;;;;16.35;13.63;;;22.30;99.90;;;;;;5058169;28;20400;-73
2023/08/19 08:43:59;;;;;;;15.68;13.27;;;22.40;99.90;;;;;;5064394;28;20057;-73
2023/08/19 08:46:26;;;;;;;15.27;12.60;;;22.40;99.90;;;;;;5054293;28;20037;-73
2023/08/19 08:48:53;;;;;;;17.02;12.15;;;22.60;99.90;;;;;;5063504;28;20052;-74
2023/08/19 08:51:20;;;;;;;14.23;11.57;;;22.60;99.90;;;;;;5059826;28;20045;-74
2023/08/19 08:53:48;;;;;;;13.15;11.70;;;22.70;99.90;;;;;;5062332;28;20052;-74
2023/08/19 08:56:14;;;;;;;14.75;11.82;;;22.80;99.90;;;;;;5065509;28;20040;-74
2023/08/19 08:58:40;;;;;;;14.38;11.45;;;22.80;99.90;;;;;;5064115;28;20040;-74
2023/08/19 09:01:06;;;;;;;15.85;11.60;;;22.90;99.90;;;;;;5071797;28;20045;-74
2023/08/19 09:03:33;;;;;;;16.13;12.52;;;22.90;99.90;;;;;;5056330;28;20083;-74
2023/08/19 09:06:07;;;;;;;15.18;12.05;;;22.80;99.90;;;;;;5065015;28;20124;-74
2023/08/19 09:09:03;;;;;;;15.25;12.27;;;22.80;99.90;;;;;;5080939;28;20041;-74
2023/08/19 09:11:33;;;;;;;15.35;12.00;;;22.80;99.90;;;;;;5060836;28;20091;-74
2023/08/19 09:14:24;;;;;;;16.05;12.63;;;22.70;99.90;;;;;;5062936;28;20048;-74
2023/08/19 09:16:50;;;;;;;19.27;13.25;;;22.80;99.90;;;;;;5079284;28;20375;-74
2023/08/19 09:19:15;;;;;;;16.08;13.50;;;22.80;99.90;;;;;;5059979;28;20055;-73
2023/08/19 09:21:41;;;;;;;18.77;13.68;;;22.80;99.90;;;;;;5089109;28;20052;-73
2023/08/19 09:24:07;;;;;;;18.92;14.60;;;22.80;99.90;;;;;;5065119;28;20094;-73
2023/08/19 09:26:43;;;;;;;20.98;15.55;;;22.80;99.90;;;;;;5077860;28;20052;-73
2023/08/19 09:29:09;;;;;;;17.15;13.70;;;22.90;99.90;;;;;;5072580;28;20095;-73
2023/08/19 09:31:38;;;;;;;16.85;13.32;;;22.90;99.90;;;;;;5074657;28;20084;-77
2023/08/19 09:34:04;;;;;;;14.90;12.77;;;22.90;99.90;;;;;;5074448;28;20091;-73
2023/08/19 09:36:30;;;;;;;18.25;12.57;;;23.00;99.90;;;;;;5090469;28;20079;-73
2023/08/19 09:38:56;;;;;;;15.13;12.35;;;22.90;99.90;;;;;;5081195;28;20044;-73
2023/08/19 09:41:27;;;;;;;15.25;12.43;;;22.90;99.90;;;;;;5086490;28;20082;-73
2023/08/19 09:43:54;;;;;;;16.08;13.30;;;23.00;99.90;;;;;;5069875;28;20095;-73
2023/08/19 09:46:20;;;;;;;16.50;12.63;;;23.00;99.90;;;;;;5068522;28;20442;-73
2023/08/19 09:48:57;;;;;;;15.50;13.52;;;23.00;99.90;;;;;;5073357;28;20036;-73
2023/08/19 09:51:28;;;;;;;16.55;14.02;;;23.00;99.90;;;;;;5089813;28;20040;-73
2023/08/19 09:53:55;;;;;;;16.65;13.65;;;23.10;99.90;;;;;;5077380;28;20052;-74
2023/08/19 09:56:22;;;;;;;17.92;13.27;;;23.20;99.90;;;;;;5054181;28;20036;-73
2023/08/19 09:58:53;;;;;;;18.98;13.98;;;23.30;99.90;;;;;;5053139;28;20041;-74
2023/08/19 10:01:22;;;;;;;15.85;13.35;;;23.30;99.90;;;;;;5053081;28;20599;-73
2023/08/19 10:03:48;;;;;;;16.95;13.75;;;23.40;99.90;;;;;;5053078;28;20076;-73
2023/08/19 10:06:26;;;;;;;18.25;13.63;;;23.50;99.90;;;;;;5069658;28;20457;-73
2023/08/19 10:08:59;;;;;;;14.32;12.10;;;23.50;99.90;;;;;;5054314;28;20045;-74
2023/08/19 10:11:29;;;;;;;17.05;12.90;;;23.40;99.90;;;;;;5052809;28;20116;-73
2023/08/19 10:14:02;;;;;;;14.15;12.63;;;23.40;99.90;;;;;;5052813;28;20088;-73
2023/08/19 10:16:32;;;;;;;20.52;14.05;;;23.50;99.90;;;;;;5053879;28;20045;-74
2023/08/19 10:18:59;;;;;;;16.35;13.93;;;23.40;99.90;;;;;;5052678;28;20044;-73
2023/08/19 10:21:27;;;;;;;21.33;13.55;;;23.50;99.90;;;;;;5053914;28;20045;-74
2023/08/19 10:23:53;;;;;;;16.40;12.70;;;23.50;99.90;;;;;;5053910;28;20108;-75
2023/08/19 10:26:19;;;;;;;16.73;13.32;;;23.50;99.90;;;;;;5069169;28;20037;-74
2023/08/19 10:29:04;;;;;;;19.27;13.98;;;23.50;99.90;;;;;;5053777;28;20052;-75
2023/08/19 10:31:34;;;;;;;16.55;12.82;;;23.70;99.90;;;;;;5052343;28;20041;-74
2023/08/19 10:34:11;;;;;;;20.38;13.98;;;23.80;99.90;;;;;;5052354;28;20061;-74
2023/08/19 10:36:39;;;;;;;19.05;13.77;;;23.80;99.90;;;;;;5052353;28;20049;-74
2023/08/19 10:39:14;;;;;;;16.23;14.20;;;23.90;99.90;;;;;;5069829;28;20101;-75
2023/08/19 10:41:40;;;;;;;18.70;14.60;;;24.00;99.90;;;;;;5073624;28;20044;-75
2023/08/19 10:44:12;;;;;;;20.63;14.57;;;24.00;99.90;;;;;;5072858;28;20080;-75
2023/08/19 10:46:45;;;;;;;16.45;14.38;;;24.00;99.90;;;;;;5073671;28;20116;-75
2023/08/19 10:49:15;;;;;;;17.88;14.32;;;24.00;99.90;;;;;;5072208;28;20088;-80
2023/08/19 10:51:53;;;;;;;15.77;14.02;;;24.20;99.90;;;;;;5073344;28;20044;-75
2023/08/19 10:54:40;;;;;;;17.15;14.73;;;24.00;99.90;;;;;;5072682;28;20041;-75
2023/08/19 10:57:11;;;;;;;17.23;15.10;;;24.10;99.90;;;;;;5073409;28;20095;-76
2023/08/19 10:59:39;;;;;;;18.42;14.85;;;24.20;99.90;;;;;;5072311;28;20575;-76
2023/08/19 11:02:05;;;;;;;19.30;14.90;;;24.20;99.90;;;;;;5088998;28;20499;-75
2023/08/19 11:04:32;;;;;;;17.88;14.50;;;24.20;99.90;;;;;;5089157;28;20563;-76
2023/08/19 11:06:58;;;;;;;18.80;14.88;;;24.30;99.90;;;;;;5073416;28;20047;-76
2023/08/19 11:09:26;;;;;;;19.58;15.48;;;24.20;99.90;;;;;;5073512;28;20404;-75
2023/08/19 11:11:56;;;;;;;19.55;15.52;;;24.30;99.90;;;;;;5073500;28;20040;-76
2023/08/19 11:14:23;;;;;;;19.58;15.68;;;24.40;99.90;;;;;;5073153;28;20408;-76
2023/08/19 11:16:53;;;;;;;20.85;15.63;;;24.50;99.90;;;;;;5071940;28;20052;-75
2023/08/19 11:19:20;;;;;;;21.98;17.13;;;24.60;99.90;;;;;;5073137;28;20049;-75
2023/08/19 11:21:55;;;;;;;18.25;15.65;;;25.00;99.90;;;;;;5072111;28;20047;-75
2023/08/19 11:24:37;;;;;;;21.23;17.42;;;25.20;99.90;;;;;;5088969;28;20048;-76
2023/08/19 11:27:12;;;;;;;19.90;17.73;;;25.30;99.90;;;;;;5072145;28;20515;-76
2023/08/19 11:32:48;;;;;;;24.48;19.70;;;25.60;99.90;;;;;;5088462;28;20062;-75
2023/08/19 11:35:14;;;;;;;24.65;20.08;;;25.60;99.90;;;;;;5088664;28;20049;-75
2023/08/19 11:37:41;;;;;;;24.25;21.65;;;25.60;99.90;;;;;;5089210;28;20111;-76
2023/08/19 11:40:08;;;;;;;26.58;22.17;;;25.60;99.90;;;;;;5071762;28;20052;-76
2023/08/19 11:42:37;;;;;;;27.98;23.70;;;25.70;99.90;;;;;;5071659;28;20051;-76
2023/08/19 11:45:12;;;;;;;29.08;26.08;;;25.60;99.90;;;;;;5071491;28;20032;-76
2023/08/19 11:47:38;;;;;;;31.02;25.52;;;25.60;99.90;;;;;;5071915;28;20044;-76
2023/08/19 11:50:07;;;;;;;30.85;27.50;;;25.50;99.90;;;;;;5073168;28;20036;-76
2023/08/19 11:52:33;;;;;;;35.45;30.45;;;25.40;99.90;;;;;;5073222;28;20048;-75
2023/08/19 11:55:00;;;;;;;38.50;32.22;;;25.20;99.90;;;;;;5075270;28;20051;-75
2023/08/19 11:57:34;;;;;;;41.70;35.17;;;25.00;99.90;;;;;;5076568;28;20064;-76
2023/08/19 12:00:00;;;;;;;44.60;36.65;;;24.70;99.90;;;;;;5075348;28;20052;-76
2023/08/19 12:02:26;;;;;;;49.15;40.03;;;24.70;99.90;;;;;;5075137;28;20052;-76
2023/08/19 12:04:53;;;;;;;49.75;39.72;;;24.40;99.90;;;;;;5075394;28;20044;-76
2023/08/19 12:07:25;;;;;;;50.63;40.67;;;24.30;99.90;;;;;;5075373;28;20503;-76
2023/08/19 12:09:55;;;;;;;46.88;38.83;;;24.20;99.90;;;;;;5075685;28;20388;-76
2023/08/19 12:12:20;;;;;;;45.42;35.30;;;24.10;99.90;;;;;;5076321;28;20139;-75
2023/08/19 12:14:46;;;;;;;39.58;30.05;;;23.90;99.90;;;;;;5076470;28;20124;-76
2023/08/19 12:17:13;;;;;;;31.75;24.85;;;23.90;99.90;;;;;;5076205;28;20127;-76
2023/08/19 12:19:38;;;;;;;26.70;21.13;;;23.80;99.90;;;;;;5074975;28;20040;-76
2023/08/19 12:22:04;;;;;;;23.40;19.48;;;23.80;99.90;;;;;;5075051;28;20102;-76
2023/08/19 12:24:30;;;;;;;23.17;17.45;;;23.80;99.90;;;;;;5075160;28;20122;-76
2023/08/19 12:26:55;;;;;;;30.63;22.45;;;23.70;99.90;;;;;;5076069;28;20049;-75
2023/08/19 12:29:21;;;;;;;32.35;24.45;;;23.80;99.90;;;;;;5074684;28;20080;-76
2023/08/19 12:31:47;;;;;;;23.45;17.75;;;23.70;99.90;;;;;;5075997;28;20132;-75
2023/08/19 12:34:15;;;;;;;19.20;14.13;;;23.60;99.90;;;;;;5076207;28;20080;-88